createdAt,value
2018-07-07T00:00:09.492Z,1.70
2018-07-07T00:02:38.604Z,2.27
2018-07-07T00:05:07.751Z,2.10
2018-07-07T00:07:37.268Z,2.27
2018-07-07T00:10:05.676Z,2.00
2018-07-07T00:12:34.455Z,2.57
2018-07-07T00:15:02.867Z,3.03
2018-07-07T00:17:31.264Z,3.23
2018-07-07T00:19:59.640Z,1.60
2018-07-07T00:22:28.680Z,1.47
2018-07-07T00:24:58.905Z,1.80
2018-07-07T00:27:28.734Z,1.80
2018-07-07T00:29:57.091Z,2.07
2018-07-07T00:32:25.792Z,2.23
2018-07-07T00:34:54.188Z,2.00
2018-07-07T00:37:22.547Z,2.37
2018-07-07T00:39:50.948Z,2.13
2018-07-07T00:42:19.324Z,2.60
2018-07-07T00:44:47.683Z,2.27
2018-07-07T00:47:16.604Z,2.00
2018-07-07T00:49:44.675Z,2.10
2018-07-07T00:52:12.858Z,1.87
2018-07-07T00:54:42.675Z,1.63
2018-07-07T00:57:11.364Z,1.80
2018-07-07T00:59:39.760Z,1.77
2018-07-07T01:02:13.635Z,1.53
2018-07-07T01:04:42.296Z,2.20
2018-07-07T01:07:10.711Z,1.70
2018-07-07T01:09:39.668Z,2.77
2018-07-07T01:12:08.236Z,2.53
2018-07-07T01:14:36.799Z,2.77
2018-07-07T01:17:05.291Z,2.97
2018-07-07T01:19:33.804Z,2.33
2018-07-07T01:22:02.308Z,2.27
2018-07-07T01:24:30.863Z,2.20
2018-07-07T01:26:59.254Z,2.50
2018-07-07T01:29:27.929Z,2.30
2018-07-07T01:31:56.646Z,2.80
2018-07-07T01:34:25.008Z,2.17
2018-07-07T01:36:53.375Z,3.30
2018-07-07T01:39:22.370Z,2.97
2018-07-07T01:41:51.131Z,2.77
2018-07-07T01:44:20.032Z,2.17
2018-07-07T01:46:48.419Z,2.87
2018-07-07T01:49:17.063Z,2.90
2018-07-07T01:51:45.451Z,2.90
2018-07-07T01:54:13.835Z,2.47
2018-07-07T01:56:42.467Z,2.30
2018-07-07T01:59:10.844Z,2.70
2018-07-07T02:01:39.463Z,2.93
2018-07-07T02:04:08.246Z,2.20
2018-07-07T02:06:36.620Z,2.70
2018-07-07T02:09:06.095Z,2.70
2018-07-07T02:11:34.724Z,2.87
2018-07-07T02:14:03.403Z,2.83
2018-07-07T02:16:31.783Z,2.97
2018-07-07T02:19:00.391Z,2.83
2018-07-07T02:21:29.104Z,2.70
2018-07-07T02:23:57.892Z,2.07
2018-07-07T02:26:27.039Z,2.23
2018-07-07T02:28:55.791Z,3.17
2018-07-07T02:31:24.131Z,3.03
2018-07-07T02:33:52.492Z,1.90
2018-07-07T02:36:21.175Z,2.07
2018-07-07T02:38:50.078Z,2.00
2018-07-07T02:41:18.567Z,2.40
2018-07-07T02:43:46.983Z,3.07
2018-07-07T02:46:15.690Z,3.03
2018-07-07T02:48:44.066Z,2.37
2018-07-07T02:51:12.691Z,2.27
2018-07-07T02:53:41.052Z,1.80
2018-07-07T02:56:09.655Z,1.90
2018-07-07T02:58:38.131Z,1.83
2018-07-07T03:01:06.510Z,2.03
2018-07-07T03:03:35.201Z,2.17
2018-07-07T03:06:04.159Z,2.37
2018-07-07T03:08:32.833Z,1.93
2018-07-07T03:11:01.217Z,2.40
2018-07-07T03:13:29.596Z,1.57
2018-07-07T03:15:58.288Z,2.40
2018-07-07T03:18:27.320Z,3.10
2018-07-07T03:20:56.271Z,2.60
2018-07-07T03:23:24.649Z,2.47
2018-07-07T03:25:53.300Z,2.80
2018-07-07T03:28:21.682Z,3.00
2018-07-07T03:30:50.063Z,2.50
2018-07-07T03:33:18.791Z,1.80
2018-07-07T03:35:47.209Z,3.00
2018-07-07T03:38:15.853Z,2.47
2018-07-07T03:40:44.531Z,2.47
2018-07-07T03:43:12.883Z,3.40
2018-07-07T03:45:41.267Z,3.60
2018-07-07T03:48:09.803Z,3.33
2018-07-07T03:50:38.451Z,2.87
2018-07-07T03:53:06.895Z,2.63
2018-07-07T03:55:35.515Z,2.47
2018-07-07T03:58:03.887Z,2.77
2018-07-07T04:00:32.618Z,3.20
2018-07-07T04:03:01.276Z,2.10
2018-07-07T04:05:29.643Z,4.40
2018-07-07T04:07:58.311Z,2.60
2018-07-07T04:10:26.992Z,2.50
2018-07-07T04:12:56.212Z,2.30
2018-07-07T04:15:24.925Z,2.30
2018-07-07T04:17:53.891Z,2.37
2018-07-07T04:20:22.247Z,2.73
2018-07-07T04:22:50.927Z,2.20
2018-07-07T04:25:19.447Z,2.20
2018-07-07T04:27:48.427Z,2.40
2018-07-07T04:30:16.803Z,3.20
2018-07-07T04:32:45.399Z,2.30
2018-07-07T04:35:14.286Z,1.77
2018-07-07T04:37:42.740Z,2.43
2018-07-07T04:40:11.447Z,2.20
2018-07-07T04:42:39.819Z,1.93
2018-07-07T04:45:08.235Z,1.50
2018-07-07T04:47:36.619Z,2.37
2018-07-07T04:50:05.504Z,2.80
2018-07-07T04:52:34.136Z,2.50
2018-07-07T04:55:02.497Z,2.57
2018-07-07T04:57:30.953Z,2.60
2018-07-07T05:00:00.155Z,2.27
2018-07-07T05:02:28.529Z,2.87
2018-07-07T05:04:56.895Z,3.47
2018-07-07T05:07:25.252Z,3.50
2018-07-07T05:09:53.631Z,3.53
2018-07-07T05:12:22.513Z,2.67
2018-07-07T05:14:51.406Z,3.40
2018-07-07T05:17:20.109Z,5.43
2018-07-07T05:19:48.867Z,3.10
2018-07-07T05:22:17.262Z,2.70
2018-07-07T05:24:45.665Z,2.53
2018-07-07T05:27:14.099Z,2.57
2018-07-07T05:29:42.484Z,3.40
2018-07-07T05:32:11.269Z,3.43
2018-07-07T05:34:40.076Z,2.97
2018-07-07T05:37:08.722Z,3.43
2018-07-07T05:39:37.342Z,3.30
2018-07-07T05:42:06.027Z,2.80
2018-07-07T05:44:34.383Z,2.70
2018-07-07T05:47:03.091Z,2.47
2018-07-07T05:49:31.719Z,2.57
2018-07-07T05:52:00.106Z,2.73
2018-07-07T05:54:28.467Z,2.33
2018-07-07T05:56:57.169Z,3.33
2018-07-07T05:59:25.859Z,2.43
2018-07-07T06:01:54.210Z,2.57
2018-07-07T06:04:22.891Z,2.97
2018-07-07T06:06:51.766Z,2.97
2018-07-07T06:09:20.199Z,2.47
2018-07-07T06:11:48.568Z,3.53
2018-07-07T06:14:16.994Z,2.70
2018-07-07T06:16:45.620Z,3.33
2018-07-07T06:19:13.986Z,3.63
2018-07-07T06:21:42.643Z,3.20
2018-07-07T06:24:11.447Z,3.27
2018-07-07T06:26:39.823Z,3.50
2018-07-07T06:29:08.555Z,3.73
2018-07-07T06:31:37.004Z,3.73
2018-07-07T06:34:05.781Z,3.27
2018-07-07T06:36:34.546Z,4.50
2018-07-07T06:39:02.979Z,4.60
2018-07-07T06:41:31.576Z,4.23
2018-07-07T06:44:00.219Z,4.13
2018-07-07T06:46:28.780Z,3.97
2018-07-07T06:48:57.375Z,3.87
2018-07-07T06:51:26.220Z,4.10
2018-07-07T06:53:54.970Z,3.97
2018-07-07T06:56:23.627Z,4.70
2018-07-07T06:58:52.447Z,4.83
2018-07-07T07:01:20.819Z,4.47
2018-07-07T07:03:49.208Z,4.90
2018-07-07T07:06:17.805Z,5.67
2018-07-07T07:08:46.759Z,6.50
2018-07-07T07:11:15.159Z,7.30
2018-07-07T07:13:43.535Z,6.13
2018-07-07T07:16:11.923Z,5.90
2018-07-07T07:18:39.994Z,6.87
2018-07-07T07:21:08.738Z,6.17
2018-07-07T07:23:37.491Z,5.73
2018-07-07T07:26:05.956Z,7.10
2018-07-07T07:28:34.651Z,5.50
2018-07-07T07:31:03.274Z,7.43
2018-07-07T07:33:31.699Z,5.40
2018-07-07T07:36:02.895Z,6.57
2018-07-07T07:38:31.271Z,5.43
2018-07-07T07:40:59.656Z,6.70
2018-07-07T07:43:28.030Z,6.40
2018-07-07T07:45:56.412Z,6.30
2018-07-07T07:48:24.776Z,6.77
2018-07-07T07:50:53.195Z,5.63
2018-07-07T07:53:21.863Z,6.37
2018-07-07T07:55:50.673Z,6.73
2018-07-07T07:58:19.323Z,5.80
2018-07-07T08:00:47.696Z,6.00
2018-07-07T08:03:16.314Z,5.87
2018-07-07T08:05:44.683Z,5.80
2018-07-07T08:08:13.555Z,6.00
2018-07-07T08:10:42.367Z,6.80
2018-07-07T08:13:10.747Z,5.10
2018-07-07T08:15:39.404Z,6.30
2018-07-07T08:18:07.866Z,5.00
2018-07-07T08:20:36.223Z,4.50
2018-07-07T08:23:04.627Z,4.03
2018-07-07T08:25:33.535Z,3.70
2018-07-07T08:28:02.168Z,3.73
2018-07-07T08:30:30.567Z,4.60
2018-07-07T08:32:59.215Z,4.50
2018-07-07T08:35:27.864Z,4.00
2018-07-07T08:37:56.336Z,3.50
2018-07-07T08:40:24.956Z,4.27
2018-07-07T08:42:53.591Z,4.80
2018-07-07T08:45:21.967Z,4.20
2018-07-07T08:47:50.342Z,4.63
2018-07-07T08:50:18.727Z,4.73
2018-07-07T08:52:47.343Z,5.60
2018-07-07T08:55:15.723Z,5.63
2018-07-07T08:57:44.710Z,5.40
2018-07-07T09:00:15.680Z,4.20
2018-07-07T09:02:44.743Z,4.87
2018-07-07T09:05:13.379Z,4.70
2018-07-07T09:07:41.498Z,4.70
2018-07-07T09:10:10.108Z,5.30
2018-07-07T09:12:38.483Z,4.70
2018-07-07T09:15:06.876Z,3.80
2018-07-07T09:17:36.458Z,5.23
2018-07-07T09:20:04.975Z,4.30
2018-07-07T09:22:33.326Z,4.43
2018-07-07T09:25:02.527Z,3.30
2018-07-07T09:27:32.152Z,4.77
2018-07-07T09:30:00.738Z,4.83
2018-07-07T09:32:29.983Z,4.97
2018-07-07T09:34:58.747Z,4.37
2018-07-07T09:37:27.802Z,4.60
2018-07-07T09:39:56.490Z,3.83
2018-07-07T09:42:24.879Z,4.23
2018-07-07T09:44:53.444Z,5.40
2018-07-07T09:47:22.199Z,3.80
2018-07-07T09:49:51.019Z,4.70
2018-07-07T09:52:19.642Z,4.67
2018-07-07T09:54:49.642Z,2.93
2018-07-07T09:57:18.027Z,3.73
2018-07-07T09:59:46.379Z,3.20
2018-07-07T10:02:14.763Z,3.87
2018-07-07T10:04:43.683Z,4.33
2018-07-07T10:07:12.351Z,3.63
2018-07-07T10:09:40.422Z,3.63
2018-07-07T10:12:09.055Z,2.87
2018-07-07T10:14:37.449Z,3.40
2018-07-07T10:17:07.084Z,3.63
2018-07-07T10:19:35.667Z,4.00
2018-07-07T10:22:04.063Z,4.13
2018-07-07T10:24:32.143Z,4.30
2018-07-07T10:27:00.224Z,3.97
2018-07-07T10:29:28.878Z,3.30
2018-07-07T10:31:57.419Z,3.00
2018-07-07T10:34:25.762Z,2.50
2018-07-07T10:36:54.156Z,3.60
2018-07-07T10:39:22.559Z,3.87
2018-07-07T10:41:51.269Z,2.87
2018-07-07T10:44:19.928Z,3.20
2018-07-07T10:46:48.465Z,3.07
2018-07-07T10:49:16.822Z,4.07
2018-07-07T10:51:47.246Z,3.73
2018-07-07T10:54:16.164Z,3.50
2018-07-07T10:56:44.528Z,4.10
2018-07-07T10:59:13.155Z,4.30
2018-07-07T11:01:42.047Z,4.93
2018-07-07T11:04:10.779Z,3.93
2018-07-07T11:06:40.747Z,4.30
2018-07-07T11:09:09.358Z,4.70
2018-07-07T11:11:38.072Z,4.20
2018-07-07T11:14:09.055Z,4.40
2018-07-07T11:16:37.747Z,4.40
2018-07-07T11:19:06.155Z,4.17
2018-07-07T11:21:34.769Z,4.43
2018-07-07T11:24:02.860Z,4.80
2018-07-07T11:26:31.220Z,5.07
2018-07-07T11:28:59.728Z,4.47
2018-07-07T11:31:28.082Z,4.13
2018-07-07T11:33:56.472Z,4.53
2018-07-07T11:36:25.151Z,4.60
2018-07-07T11:38:54.455Z,4.13
2018-07-07T11:41:25.064Z,4.57
2018-07-07T11:43:54.747Z,3.77
2018-07-07T11:46:23.107Z,4.47
2018-07-07T11:48:51.836Z,4.33
2018-07-07T11:51:19.906Z,4.70
2018-07-07T11:53:48.184Z,4.73
2018-07-07T11:56:16.243Z,4.00
2018-07-07T11:58:44.603Z,4.20
2018-07-07T12:01:12.960Z,3.90
2018-07-07T12:03:41.667Z,4.23
2018-07-07T12:06:10.466Z,3.40
2018-07-07T12:08:38.871Z,3.60
2018-07-07T12:11:07.433Z,4.47
2018-07-07T12:13:35.871Z,4.40
2018-07-07T12:16:04.307Z,4.03
2018-07-07T12:18:32.959Z,4.60
2018-07-07T12:21:01.632Z,3.63
2018-07-07T12:23:30.303Z,3.60
2018-07-07T12:25:59.003Z,4.40
2018-07-07T12:28:27.436Z,4.03
2018-07-07T12:30:55.798Z,4.50
2018-07-07T12:33:24.208Z,3.87
2018-07-07T12:35:52.600Z,4.77
2018-07-07T12:38:21.007Z,4.10
2018-07-07T12:40:49.774Z,3.63
2018-07-07T12:43:18.083Z,4.37
2018-07-07T12:45:46.476Z,3.43
2018-07-07T12:48:15.131Z,3.60
2018-07-07T12:50:43.876Z,3.80
2018-07-07T12:53:12.534Z,3.70
2018-07-07T12:55:40.871Z,3.70
2018-07-07T12:58:09.540Z,3.20
2018-07-07T13:00:38.334Z,2.90
2018-07-07T13:03:06.716Z,2.90
2018-07-07T13:05:35.448Z,3.50
2018-07-07T13:08:04.315Z,3.63
2018-07-07T13:10:32.386Z,4.23
2018-07-07T13:13:00.764Z,5.23
2018-07-07T13:15:29.871Z,4.27
2018-07-07T13:17:58.268Z,3.83
2018-07-07T13:20:26.652Z,3.80
2018-07-07T13:22:55.312Z,3.83
2018-07-07T13:25:24.474Z,4.10
2018-07-07T13:27:53.182Z,3.80
2018-07-07T13:30:21.611Z,3.43
2018-07-07T13:32:50.005Z,3.60
2018-07-07T13:35:18.380Z,3.03
2018-07-07T13:37:46.760Z,3.53
2018-07-07T13:40:15.135Z,3.47
2018-07-07T13:42:43.523Z,3.13
2018-07-07T13:45:12.531Z,4.20
2018-07-07T13:47:40.997Z,3.53
2018-07-07T13:50:09.405Z,3.53
2018-07-07T13:52:37.784Z,3.30
2018-07-07T13:55:06.183Z,3.60
2018-07-07T13:57:34.279Z,3.70
2018-07-07T14:00:02.690Z,4.10
2018-07-07T14:02:31.076Z,3.80
2018-07-07T14:04:59.647Z,3.63
2018-07-07T14:07:28.293Z,3.37
2018-07-07T14:09:57.025Z,3.97
2018-07-07T14:12:26.049Z,4.23
2018-07-07T14:14:54.703Z,4.50
2018-07-07T14:17:23.571Z,4.60
2018-07-07T14:19:52.176Z,4.07
2018-07-07T14:22:20.579Z,3.50
2018-07-07T14:24:49.248Z,4.00
2018-07-07T14:27:18.154Z,4.30
2018-07-07T14:29:46.517Z,4.50
2018-07-07T14:32:15.140Z,4.50
2018-07-07T14:34:43.499Z,4.03
2018-07-07T14:37:12.180Z,4.77
2018-07-07T14:39:52.811Z,4.30
2018-07-07T14:42:56.361Z,4.53
2018-07-07T14:45:27.376Z,5.40
2018-07-07T14:47:57.587Z,5.13
2018-07-07T14:50:26.839Z,5.10
2018-07-07T14:52:55.271Z,4.57
2018-07-07T14:55:25.579Z,4.23
2018-07-07T14:57:54.293Z,4.70
2018-07-07T15:00:27.819Z,4.73
2018-07-07T15:02:57.481Z,4.40
2018-07-07T15:05:25.912Z,4.23
2018-07-07T15:07:54.301Z,4.50
2018-07-07T15:10:22.715Z,5.07
2018-07-07T15:12:51.703Z,4.37
2018-07-07T15:15:20.168Z,4.17
2018-07-07T15:17:48.568Z,3.80
2018-07-07T15:20:16.964Z,5.37
2018-07-07T15:22:45.486Z,4.43
2018-07-07T15:25:13.464Z,4.80
2018-07-07T15:27:42.188Z,4.27
2018-07-07T15:30:10.796Z,5.33
2018-07-07T15:32:39.959Z,4.47
2018-07-07T15:35:08.644Z,3.80
2018-07-07T15:37:37.431Z,4.00
2018-07-07T15:40:06.294Z,3.97
2018-07-07T15:42:35.323Z,3.57
2018-07-07T15:45:03.859Z,3.73
2018-07-07T15:47:32.480Z,3.90
2018-07-07T15:50:01.137Z,3.77
2018-07-07T15:52:29.563Z,4.90
2018-07-07T15:54:58.235Z,4.47
2018-07-07T15:57:27.130Z,3.93
2018-07-07T15:59:55.616Z,3.50
2018-07-07T16:02:24.020Z,2.93
2018-07-07T16:04:52.707Z,3.43
2018-07-07T16:07:21.006Z,3.97
2018-07-07T16:09:49.768Z,3.80
2018-07-07T16:12:18.375Z,3.50
2018-07-07T16:14:46.794Z,4.00
2018-07-07T16:17:15.683Z,3.30
2018-07-07T16:19:44.369Z,4.17
2018-07-07T16:22:13.386Z,4.00
2018-07-07T16:24:42.087Z,3.07
2018-07-07T16:27:10.487Z,3.57
2018-07-07T16:29:38.959Z,3.70
2018-07-07T16:32:07.390Z,3.70
2018-07-07T16:34:35.830Z,3.20
2018-07-07T16:37:04.551Z,3.23
2018-07-07T16:39:33.752Z,2.57
2018-07-07T16:42:02.172Z,3.97
2018-07-07T16:44:31.123Z,4.70
2018-07-07T16:47:00.711Z,2.87
2018-07-07T16:49:29.335Z,3.40
2018-07-07T16:51:59.965Z,4.40
2018-07-07T16:54:28.591Z,6.30
2018-07-07T16:56:58.619Z,2.93
2018-07-07T16:59:27.467Z,3.50
2018-07-07T17:01:55.963Z,3.70
2018-07-07T17:04:24.466Z,3.20
2018-07-07T17:06:53.180Z,4.00
2018-07-07T17:09:21.739Z,3.57
2018-07-07T17:11:51.752Z,5.40
2018-07-07T17:14:21.784Z,3.63
2018-07-07T17:16:50.245Z,2.90
2018-07-07T17:19:18.991Z,2.93
2018-07-07T17:21:47.435Z,3.17
2018-07-07T17:24:16.463Z,2.77
2018-07-07T17:26:46.032Z,4.70
2018-07-07T17:29:14.609Z,2.30
2018-07-07T17:31:43.250Z,3.40
2018-07-07T17:34:11.991Z,3.00
2018-07-07T17:36:40.430Z,3.27
2018-07-07T17:39:09.005Z,2.43
2018-07-07T17:41:37.673Z,3.40
2018-07-07T17:44:06.767Z,3.13
2018-07-07T17:46:35.422Z,3.00
2018-07-07T17:49:04.528Z,2.37
2018-07-07T17:51:32.947Z,2.83
2018-07-07T17:54:02.227Z,2.70
2018-07-07T17:56:30.661Z,2.60
2018-07-07T17:59:00.079Z,3.00
2018-07-07T18:01:28.539Z,3.50
2018-07-07T18:03:57.207Z,3.40
2018-07-07T18:06:25.612Z,2.80
2018-07-07T18:08:53.987Z,3.00
2018-07-07T18:11:22.695Z,2.67
2018-07-07T18:13:51.796Z,2.73
2018-07-07T18:16:20.167Z,2.47
2018-07-07T18:18:48.874Z,3.17
2018-07-07T18:21:17.267Z,3.17
2018-07-07T18:23:45.963Z,3.23
2018-07-07T18:26:14.630Z,3.17
2018-07-07T18:28:43.672Z,3.50
2018-07-07T18:31:12.031Z,2.70
2018-07-07T18:33:40.692Z,3.40
2018-07-07T18:36:09.364Z,3.80
2018-07-07T18:38:37.760Z,3.80
2018-07-07T18:41:06.612Z,4.33
2018-07-07T18:43:35.699Z,3.50
2018-07-07T18:46:04.391Z,4.40
2018-07-07T18:48:32.767Z,3.40
2018-07-07T18:51:01.459Z,3.50
2018-07-07T18:53:30.263Z,4.40
2018-07-07T18:55:58.707Z,3.50
2018-07-07T18:58:27.403Z,3.77
2018-07-07T19:00:55.815Z,3.77
2018-07-07T19:03:24.211Z,3.27
2018-07-07T19:05:52.319Z,3.93
2018-07-07T19:08:20.724Z,3.87
2018-07-07T19:10:49.442Z,3.67
2018-07-07T19:13:18.395Z,3.90
2018-07-07T19:15:48.233Z,3.13
2018-07-07T19:18:16.914Z,4.53
2018-07-07T19:20:51.012Z,4.10
2018-07-07T19:23:24.904Z,3.70
2018-07-07T19:25:58.908Z,4.10
2018-07-07T19:28:27.569Z,3.60
2018-07-07T19:30:56.289Z,3.73
2018-07-07T19:33:30.599Z,3.77
2018-07-07T19:36:04.440Z,4.80
2018-07-07T19:38:33.052Z,3.60
2018-07-07T19:41:01.450Z,3.50
2018-07-07T19:43:30.603Z,3.73
2018-07-07T19:45:58.991Z,3.63
2018-07-07T19:48:27.398Z,3.20
2018-07-07T19:50:56.109Z,3.60
2018-07-07T19:53:24.553Z,3.53
2018-07-07T19:55:53.284Z,3.63
2018-07-07T19:58:22.519Z,4.30
2018-07-07T20:00:50.989Z,4.53
2018-07-07T20:03:19.375Z,4.90
2018-07-07T20:05:48.087Z,4.87
2018-07-07T20:08:16.722Z,5.43
2018-07-07T20:10:45.135Z,4.80
2018-07-07T20:13:13.591Z,4.33
2018-07-07T20:16:22.651Z,5.10
2018-07-07T20:19:26.654Z,3.47
2018-07-07T20:22:00.336Z,4.97
2018-07-07T20:24:31.101Z,5.10
2018-07-07T20:27:04.696Z,3.83
2018-07-07T20:29:33.359Z,4.13
2018-07-07T20:32:01.845Z,4.00
2018-07-07T20:34:31.233Z,6.07
2018-07-07T20:36:59.655Z,4.60
2018-07-07T20:39:28.315Z,4.30
2018-07-07T20:41:56.939Z,4.20
2018-07-07T20:44:25.674Z,4.50
2018-07-07T20:46:54.334Z,4.70
2018-07-07T20:49:22.735Z,4.70
2018-07-07T20:51:51.088Z,4.53
2018-07-07T20:54:19.995Z,5.27
2018-07-07T20:56:48.391Z,5.37
2018-07-07T20:59:17.555Z,5.30
2018-07-07T21:01:46.968Z,6.50
2018-07-07T21:04:15.628Z,6.00
2018-07-07T21:06:44.035Z,5.20
2018-07-07T21:09:12.400Z,4.40
2018-07-07T21:11:41.423Z,4.77
2018-07-07T21:14:09.811Z,5.60
2018-07-07T21:16:38.195Z,5.60
2018-07-07T21:19:06.925Z,5.20
2018-07-07T21:21:35.847Z,5.90
2018-07-07T21:24:04.331Z,4.40
2018-07-07T21:26:32.700Z,6.53
2018-07-07T21:29:01.409Z,6.70
2018-07-07T21:31:30.053Z,5.50
2018-07-07T21:33:58.756Z,4.50
2018-07-07T21:36:27.144Z,6.50
2018-07-07T21:38:55.807Z,6.10
2018-07-07T21:41:24.487Z,6.87
2018-07-07T21:43:52.977Z,9.87
2018-07-07T21:46:21.628Z,9.00
2018-07-07T21:48:50.580Z,7.97
2018-07-07T21:51:19.010Z,9.07
2018-07-07T21:53:47.439Z,6.63
2018-07-07T21:56:15.824Z,6.27
2018-07-07T21:58:44.476Z,4.80
2018-07-07T22:01:24.759Z,6.10
2018-07-07T22:03:58.443Z,6.63
2018-07-07T22:06:32.289Z,5.30
2018-07-07T22:09:00.705Z,5.43
2018-07-07T22:11:29.109Z,5.40
2018-07-07T22:13:57.536Z,5.47
2018-07-07T22:16:25.979Z,5.17
2018-07-07T22:18:54.675Z,5.83
2018-07-07T22:22:05.352Z,6.60
2018-07-07T22:24:34.247Z,5.47
2018-07-07T22:27:04.448Z,6.10
2018-07-07T22:29:32.860Z,5.40
2018-07-07T22:32:03.580Z,6.07
2018-07-07T22:34:36.559Z,6.23
2018-07-07T22:37:05.265Z,6.90
2018-07-07T22:39:35.016Z,5.47
2018-07-07T22:42:07.493Z,5.10
2018-07-07T22:44:36.499Z,5.30
2018-07-07T22:47:05.231Z,5.70
2018-07-07T22:49:34.373Z,5.73
2018-07-07T22:52:02.795Z,4.73
2018-07-07T22:54:31.216Z,5.50
2018-07-07T22:56:59.567Z,5.57
2018-07-07T22:59:28.308Z,5.87
2018-07-07T23:01:56.691Z,4.93
2018-07-07T23:04:25.586Z,5.67
2018-07-07T23:06:54.251Z,5.03
2018-07-07T23:09:22.680Z,5.47
2018-07-07T23:11:51.511Z,5.47
2018-07-07T23:14:19.959Z,6.93
2018-07-07T23:16:48.676Z,5.20
2018-07-07T23:19:17.326Z,6.00
2018-07-07T23:21:45.723Z,6.60
2018-07-07T23:24:14.456Z,7.20
2018-07-07T23:26:42.799Z,6.30
2018-07-07T23:29:11.475Z,4.97
2018-07-07T23:31:39.883Z,6.20
2018-07-07T23:34:08.299Z,5.60
2018-07-07T23:36:37.702Z,5.90
2018-07-07T23:39:06.741Z,6.83
2018-07-07T23:41:35.735Z,5.73
2018-07-07T23:44:04.419Z,5.90
2018-07-07T23:46:32.851Z,5.70
2018-07-07T23:49:01.190Z,5.60
2018-07-07T23:51:30.171Z,5.90
2018-07-07T23:53:58.609Z,6.13
2018-07-07T23:56:26.971Z,5.60
2018-07-07T23:58:55.687Z,5.97
